Terminal Aerodrome Forecast
Issued by NWS

Home | Current Version | Previous Version | Text Only | Print | Product List | Glossary On
Versions: 1 2 3 4 5 6 7 8 9 10 11 12 13 14 15 16 17 18 19 20 21 22 23 24 25 26 27 28 29 30 31
000
FTUS46 KOTX 290536
TAFSFF
TAF
KSFF 290536Z 2906/3006 04003KT 6SM FU HZ BKN120 OVC150
     FM291100 07008KT 5SM FU HZ BKN120 OVC150 WS020/19035KT
     FM291500 20009G17KT 6SM FU HZ BKN150 OVC200
     FM291700 23022G35KT 4SM BLDU BKN100 BKN250
     FM292300 23016G28KT 4SM BLDU SCT060 BKN100 BKN200
     FM300200 22011KT P6SM SCT100 SCT200=

USA.gov is the U.S. government's official web portal to all federal, state and local government web resources and services.